Latest Weather Observations for Redcliffe

IDQ60901

Issued at 10:41 pm EST Saturday 29 August 2015 (issued every 10 minutes, with the page automatically refreshed every 10 minutes)

About weather observations | Map of Brisbane area stations | Latest observations for Brisbane area | Other Formats
Station Details ID: 040958 Name: REDCLIFFE Lat: -27.22 Lon: 153.09 Height: 12.6 m
Data from the previous 72 hours. | See also: Recent months at Redcliffe
Date/Time
EST
Tmp

°C
App
Tmp
°C
Dew
Point
°C
Rel
Hum
%
Delta-T

°C
Wind Press
QNH
hPa
Press
MSL
hPa
Rain
since
9 am
mm
Dir
 
Spd
km/h
Gust
km/h
Spd
kts
Gust
kts
29/10:30pm 16.1 15.9 14.8 92 0.7 S 9 11 5 6 1019.0 1019.0 18.2
29/10:00pm 16.1 15.6 14.8 92 0.7 SSE 11 13 6 7 1019.2 1019.2 18.2
29/09:30pm 16.0 15.0 14.7 92 0.7 SE 13 17 7 9 1019.3 1019.3 18.2
29/09:00pm 16.0 15.0 14.7 92 0.7 SE 13 17 7 9 1020.0 1020.0 17.6
29/08:30pm 15.8 15.1 14.3 91 0.9 SSE 11 15 6 8 1020.0 1020.0 16.6
29/08:00pm 15.8 15.8 14.3 91 0.9 WSW 7 11 4 6 1020.4 1020.4 15.0
29/07:30pm 15.8 15.5 14.3 91 0.9 SW 9 13 5 7 1020.4 1020.4 13.4
29/07:00pm 15.9 14.8 14.4 91 0.9 SSW 13 15 7 8 1020.3 1020.3 12.8
29/06:30pm 16.0 14.2 14.5 91 0.9 SSW 17 22 9 12 1020.1 1020.1 11.8
29/06:00pm 16.2 14.1 14.6 90 0.9 SSW 19 24 10 13 1020.1 1020.1 8.0
29/05:30pm 16.4 13.9 14.1 86 1.3 SW 20 32 11 17 1019.2 1019.2 5.0
29/05:00pm 19.4 18.7 14.2 72 3.0 E 11 13 6 7 1018.5 1018.5 0.2
29/04:30pm 19.8 18.6 14.0 69 3.3 E 13 15 7 8 1018.3 1018.3 0.0
29/04:00pm 20.2 19.9 13.4 65 3.9 E 7 9 4 5 1018.2 1018.2 0.0
29/03:30pm 20.3 19.6 12.0 59 4.6 SE 7 9 4 5 1018.3 1018.3 0.0
29/03:00pm 20.5 19.6 12.5 60 4.5 SE 9 11 5 6 1018.3 1018.3 0.0
29/02:30pm 20.5 18.9 11.4 56 5.0 SE 11 13 6 7 1019.0 1019.0 0.0
29/02:00pm 20.4 18.2 10.8 54 5.2 SE 13 15 7 8 1019.4 1019.4 0.0
29/01:30pm 20.9 18.7 10.7 52 5.6 SE 13 15 7 8 1019.7 1019.7 0.0
29/01:00pm 20.8 19.3 10.6 52 5.5 SE 9 11 5 6 1020.5 1020.5 0.0
29/12:30pm 20.8 18.8 10.3 51 5.7 SSE 11 13 6 7 1021.1 1021.1 0.0
29/12:00pm 20.8 18.8 10.0 50 5.8 SSE 11 15 6 8 1021.6 1021.6 0.0
29/11:30am 21.6 19.2 10.1 48 6.2 SSE 13 15 7 8 1021.8 1021.8 0.0
29/11:00am 21.2 18.9 10.4 50 5.9 S 13 15 7 8 1022.2 1022.2 0.0
29/10:30am 21.4 18.4 10.6 50 5.9 S 17 19 9 10 1022.6 1022.6 0.0
29/10:00am 20.3 17.1 9.8 51 5.6 S 17 22 9 12 1022.7 1022.7 0.0
29/09:30am 19.6 16.9 10.3 55 5.0 S 15 20 8 11 1023.0 1023.0 0.0
29/09:00am 18.2 16.1 11.3 64 3.7 SSW 13 17 7 9 1023.3 1023.3 0.2
29/08:30am 16.7 14.3 9.9 64 3.6 SSW 13 19 7 10 1023.1 1023.1 0.2
29/08:00am 14.9 12.7 9.3 69 2.9 SSW 11 15 6 8 1022.9 1022.9 0.2
29/07:30am 14.1 12.6 9.3 73 2.5 SW 7 11 4 6 1022.8 1022.8 0.2
29/07:00am 13.1 11.2 9.0 76 2.1 SW 9 11 5 6 1022.6 1022.6 0.2
29/06:30am 12.6 10.2 8.7 77 1.9 WSW 11 15 6 8 1022.4 1022.4 0.2
29/06:00am 12.2 8.9 8.1 76 2.0 SW 15 20 8 11 1022.2 1022.2 0.2
29/05:30am 12.4 9.8 7.9 74 2.2 SW 11 13 6 7 1021.7 1021.7 0.2
29/05:00am 12.5 9.1 7.8 73 2.3 SW 15 17 8 9 1021.6 1021.6 0.2
29/04:30am 12.6 9.3 7.9 73 2.3 SW 15 20 8 11 1021.3 1021.3 0.2
29/04:00am 12.5 8.8 7.8 73 2.3 SW 17 20 9 11 1021.3 1021.3 0.2
29/03:30am 12.7 9.1 8.2 74 2.2 SW 17 19 9 10 1021.6 1021.6 0.2
29/03:00am 13.0 10.0 7.9 71 2.5 SW 13 17 7 9 1021.7 1021.7 0.2
29/02:30am 13.2 10.2 9.3 77 2.0 SW 15 17 8 9 1021.9 1021.9 0.2
29/02:00am 13.2 10.3 9.8 80 1.7 SW 15 17 8 9 1021.9 1021.9 0.2
29/01:30am 13.4 11.0 10.2 81 1.7 WSW 13 17 7 9 1022.0 1022.0 0.2
29/01:00am 13.7 11.5 10.9 83 1.5 WSW 13 15 7 8 1022.3 1022.3 0.2
29/12:30am 13.8 11.7 11.1 84 1.4 WSW 13 15 7 8 1022.2 1022.2 0.2
29/12:00am 14.3 12.4 11.8 85 1.3 WSW 13 15 7 8 1022.4 1022.4 0.2
 
Date/Time
EST
Tmp

°C
App
Tmp
°C
Dew
Point
°C
Rel
Hum
%
Delta-T

°C
Wind Press
QNH
hPa
Press
MSL
hPa
Rain
since
9 am
mm
Dir
 
Spd
km/h
Gust
km/h
Spd
kts
Gust
kts
28/11:30pm 14.5 12.7 12.0 85 1.4 WSW 13 15 7 8 1022.3 1022.3 0.2
28/11:00pm 14.9 13.4 11.9 82 1.6 SW 11 13 6 7 1022.1 1022.1 0.2
28/10:30pm 15.0 13.2 12.0 82 1.6 SW 13 15 7 8 1022.4 1022.4 0.2
28/10:00pm 15.3 13.5 12.1 81 1.7 S 13 15 7 8 1022.5 1022.5 0.2
28/09:30pm 16.0 14.2 12.2 78 2.1 SSE 13 15 7 8 1022.6 1022.6 0.2
28/09:00pm 17.1 14.9 12.0 72 2.8 SSE 15 17 8 9 1022.5 1022.5 0.2
28/08:30pm 16.9 14.7 12.0 73 2.7 SSE 15 17 8 9 1022.4 1022.4 0.2
28/08:00pm 17.2 14.9 11.9 71 2.9 SSE 15 17 8 9 1022.2 1022.2 0.2
28/07:30pm 17.5 15.8 12.6 73 2.7 SE 13 15 7 8 1021.6 1021.6 0.2
28/07:00pm 17.5 15.8 12.4 72 2.8 SE 13 15 7 8 1021.4 1021.4 0.2
28/06:30pm 18.3 16.3 12.7 70 3.1 E 15 17 8 9 1020.5 1020.5 0.2
28/06:00pm 18.7 16.5 13.3 71 3.0 E 17 19 9 10 1019.9 1019.9 0.2
28/05:30pm 19.0 16.9 13.6 71 3.1 E 17 19 9 10 1019.6 1019.6 0.2
28/05:00pm 19.6 16.9 13.5 68 3.5 E 20 24 11 13 1019.2 1019.2 0.2
28/04:30pm 19.9 16.8 13.4 66 3.7 E 22 26 12 14 1019.0 1019.0 0.2
28/04:00pm 20.2 16.9 10.9 55 5.1 E 19 22 10 12 1018.9 1018.9 0.2
28/03:30pm 20.6 17.4 10.1 51 5.7 ENE 17 19 9 10 1018.8 1018.8 0.2
28/03:00pm 20.8 18.0 11.2 54 5.3 ENE 17 19 9 10 1018.8 1018.8 0.2
28/02:30pm 20.9 17.9 12.1 57 4.9 ENE 19 20 10 11 1018.9 1018.9 0.2
28/02:00pm 20.8 17.9 9.7 49 5.9 E 15 17 8 9 1019.2 1019.2 0.2
28/01:30pm 21.8 19.6 10.9 50 6.0 ESE 13 13 7 7 1019.4 1019.4 0.2
28/01:00pm 21.0 19.0 10.2 50 5.8 SE 11 13 6 7 1019.9 1019.9 0.2
28/12:30pm 21.6 20.5 13.0 58 4.9 SSE 11 13 6 7 1020.3 1020.3 0.2
28/12:00pm 21.3 19.4 11.9 55 5.2 SSE 13 17 7 9 1020.8 1020.8 0.2
28/11:30am 20.6 18.1 11.2 55 5.2 SSW 15 20 8 11 1021.3 1021.3 0.0
28/11:00am 20.2 17.9 11.7 58 4.7 SSW 15 22 8 12 1021.9 1021.9 0.0
28/10:30am 21.1 18.8 14.0 64 4.1 S 19 24 10 13 1022.1 1022.1 0.0
28/10:00am 20.5 18.3 13.2 63 4.1 SSW 17 22 9 12 1022.3 1022.3 0.0
28/09:30am 19.2 17.4 12.2 64 3.9 SW 13 19 7 10 1022.4 1022.4 0.0
28/09:00am 18.6 17.4 12.8 69 3.2 SW 11 15 6 8 1022.1 1022.1 1.4
28/08:30am 18.4 17.6 15.1 81 1.9 WSW 13 19 7 10 1022.3 1022.3 1.4
28/08:00am 17.4 16.7 14.3 82 1.8 WSW 11 15 6 8 1022.1 1022.1 1.4
28/07:30am 16.4 16.3 14.9 91 0.9 WSW 9 11 5 6 1021.8 1021.8 1.4
28/07:00am 16.2 16.0 14.6 90 0.9 WSW 9 13 5 7 1021.4 1021.4 1.4
28/06:30am 16.2 16.0 14.7 91 0.9 SW 9 11 5 6 1021.3 1021.3 1.4
28/06:00am 16.0 15.7 14.4 90 0.9 WSW 9 13 5 7 1020.6 1020.6 1.4
28/05:30am 16.0 15.7 14.4 90 0.9 WSW 9 11 5 6 1020.7 1020.7 1.4
28/05:00am 15.9 15.6 14.3 90 0.9 SW 9 9 5 5 1020.7 1020.7 1.4
28/04:30am 15.9 16.9 14.3 90 0.9 S 2 7 1 4 1020.1 1020.1 1.4
28/04:00am 15.8 15.8 14.2 90 0.9 SW 7 11 4 6 1020.0 1020.0 1.4
28/03:30am 16.0 15.3 14.4 90 0.9 SSW 11 15 6 8 1019.8 1019.8 1.4
28/03:00am 16.2 16.0 14.6 90 0.9 SW 9 11 5 6 1019.6 1019.6 1.2
28/02:30am 16.2 16.5 14.4 89 1.0 SSW 6 7 3 4 1020.0 1020.0 1.2
28/02:00am 16.3 17.7 14.3 88 1.1 CALM 0 6 0 3 1020.3 1020.3 1.0
28/01:30am 16.5 15.8 14.3 87 1.3 WSW 11 15 6 8 1021.0 1021.0 1.0
28/01:00am 17.0 16.7 14.5 85 1.4 N 9 9 5 5 1021.0 1021.0 0.6
28/12:30am 16.8 18.0 13.9 83 1.6 CALM 0 0 0 0 1021.0 1021.0 0.6
28/12:00am 16.5 17.6 13.6 83 1.6 CALM 0 0 0 0 1021.3 1021.3 0.6
 
Date/Time
EST
Tmp

°C
App
Tmp
°C
Dew
Point
°C
Rel
Hum
%
Delta-T

°C
Wind Press
QNH
hPa
Press
MSL
hPa
Rain
since
9 am
mm
Dir
 
Spd
km/h
Gust
km/h
Spd
kts
Gust
kts
27/11:30pm 16.5 16.3 13.6 83 1.6 WNW 7 9 4 5 1021.3 1021.3 0.6
27/11:00pm 16.5 16.2 13.4 82 1.7 WNW 7 9 4 5 1021.2 1021.2 0.6
27/10:30pm 16.3 15.3 13.4 83 1.6 WSW 11 15 6 8 1021.3 1021.3 0.6
27/10:00pm 16.3 16.4 13.8 85 1.4 W 6 11 3 6 1021.1 1021.1 0.6
27/09:30pm 16.6 15.7 13.7 83 1.6 W 11 15 6 8 1021.5 1021.5 0.4
27/09:00pm 16.7 16.3 14.2 85 1.4 W 9 11 5 6 1021.2 1021.2 0.4
27/08:30pm 17.5 17.3 13.6 78 2.2 NNW 7 9 4 5 1021.2 1021.2 0.4
27/08:00pm 17.3 16.8 12.6 74 2.6 NNW 7 11 4 6 1021.1 1021.1 0.4
27/07:30pm 17.3 16.5 12.8 75 2.5 NE 9 11 5 6 1021.0 1021.0 0.4
27/07:00pm 17.5 16.4 13.0 75 2.5 ENE 11 13 6 7 1020.7 1020.7 0.4
27/06:30pm 17.5 15.9 12.8 74 2.6 ENE 13 13 7 7 1020.7 1020.7 0.4
27/06:00pm 17.7 17.1 12.4 71 2.9 ESE 7 13 4 7 1020.4 1020.4 0.4
27/05:30pm 18.1 16.7 12.3 69 3.2 E 11 13 6 7 1020.1 1020.1 0.4
27/05:00pm 18.3 17.1 12.7 70 3.1 ENE 11 13 6 7 1020.1 1020.1 0.4
27/04:30pm 18.1 17.3 13.0 72 2.9 SE 9 11 5 6 1019.7 1019.7 0.4
27/04:00pm 17.6 16.6 13.5 77 2.3 SSW 11 17 6 9 1020.0 1020.0 0.4
27/03:30pm 18.0 16.6 12.2 69 3.2 WSW 11 19 6 10 1020.3 1020.3 0.2
27/03:00pm 20.5 19.2 10.0 51 5.6 SW 7 13 4 7 1019.9 1019.9 0.0
27/02:30pm 20.7 18.6 8.4 45 6.4 ENE 9 11 5 6 1019.5 1019.5 0.0
27/02:00pm 20.4 19.3 9.9 51 5.6 ENE 6 9 3 5 1019.4 1019.4 0.0
27/01:30pm 20.9 18.9 8.5 45 6.5 ENE 9 11 5 6 1019.2 1019.2 0.0
27/01:00pm 21.3 19.0 8.9 45 6.6 E 11 13 6 7 1019.3 1019.3 0.0
27/12:30pm 21.3 18.6 7.5 41 7.1 E 11 11 6 6 1019.7 1019.7 0.0
27/12:00pm 21.0 19.1 10.5 51 5.7 E 11 13 6 7 1020.2 1020.2 0.0
27/11:30am 22.1 19.8 10.6 48 6.3 SE 13 15 7 8 1020.4 1020.4 0.0
27/11:00am 21.9 20.0 10.4 48 6.3 SE 11 13 6 7 1020.9 1020.9 0.0
27/10:30am 21.8 19.9 10.6 49 6.1 SE 11 13 6 7 1020.9 1020.9 0.0
27/10:00am 21.3 19.3 12.7 58 4.9 SSE 15 17 8 9 1021.0 1021.0 0.0
27/09:30am 21.6 19.8 10.7 50 6.0 SSE 11 13 6 7 1021.5 1021.5 0.0
27/09:00am 20.8 19.2 11.7 56 5.0 SSE 11 11 6 6 1021.7 1021.7 0.0
27/08:30am 19.8 19.0 12.8 64 4.0 S 9 13 5 7 1021.7 1021.7 0.0
27/08:00am 18.9 18.7 13.1 69 3.3 SW 6 7 3 4 1021.6 1021.6 0.0
27/07:30am 17.9 17.2 11.9 68 3.3 S 7 7 4 4 1021.4 1021.4 0.0
27/07:00am 17.2 17.3 11.5 69 3.1 WSW 2 6 1 3 1021.0 1021.0 0.0
27/06:30am 17.1 15.9 10.2 64 3.7 W 7 9 4 5 1021.0 1021.0 0.0
27/06:00am 16.7 17.1 11.4 71 2.9 CALM 0 0 0 0 1020.4 1020.4 0.0
27/05:30am 17.1 17.4 10.9 67 3.3 CALM 0 0 0 0 1020.2 1020.2 0.0
27/05:00am 17.0 16.3 11.3 69 3.1 WSW 6 7 3 4 1020.0 1020.0 0.0
27/04:30am 16.6 16.1 12.6 77 2.2 WSW 7 9 4 5 1020.0 1020.0 0.0
27/04:00am 16.6 15.8 12.9 79 2.1 WSW 9 11 5 6 1019.8 1019.8 0.0
27/03:30am 16.9 16.7 13.0 78 2.2 N 6 7 3 4 1019.7 1019.7 0.0
27/03:00am 16.9 16.4 12.6 76 2.4 NNW 7 9 4 5 1019.7 1019.7 0.0
27/02:30am 17.5 17.0 12.8 74 2.6 W 7 11 4 6 1020.0 1020.0 0.0
27/02:00am 17.4 16.8 13.5 78 2.2 WNW 9 13 5 7 1020.1 1020.1 0.0
27/01:30am 17.3 17.2 14.9 86 1.4 NW 9 11 5 6 1020.3 1020.3 0.0
27/01:00am 17.6 17.7 15.6 88 1.2 N 9 13 5 7 1020.3 1020.3 0.0
27/12:30am 17.8 19.9 16.3 91 0.9 CALM 0 0 0 0 1020.6 1020.6 0.0
27/12:00am 18.0 20.1 16.2 89 1.1 CALM 0 0 0 0 1020.7 1020.7 0.0
 
Date/Time
EST
Tmp

°C
App
Tmp
°C
Dew
Point
°C
Rel
Hum
%
Delta-T

°C
Wind Press
QNH
hPa
Press
MSL
hPa
Rain
since
9 am
mm
Dir
 
Spd
km/h
Gust
km/h
Spd
kts
Gust
kts
26/11:30pm 18.4 20.6 16.6 89 1.1 CALM 0 0 0 0 1021.0 1021.0 0.0
26/11:00pm 18.7 19.9 16.8 89 1.1 NW 6 9 3 5 1020.9 1020.9 0.0

Latest Capital City Observations: Canberra | Sydney | Melbourne | Brisbane | Adelaide | Perth | Hobart | Darwin

Other Formats:

Comma delimited format used in spreadsheet applications
http://www.bom.gov.au/fwo/IDQ60901/IDQ60901.95591.axf

JavaScript Object Notation format (JSON) in row-major order
http://www.bom.gov.au/fwo/IDQ60901/IDQ60901.95591.json